sensor_id;sensor_type;location;lat;lon;timestamp;P1;durP1;ratioP1;P2;durP2;ratioP2
35897;SDS011;21997;47.118;15.346;2022-11-24T00:01:12;7.90;;;5.50;;
35897;SDS011;21997;47.118;15.346;2022-11-24T00:03:45;6.43;;;5.13;;
35897;SDS011;21997;47.118;15.346;2022-11-24T00:06:12;7.27;;;5.27;;
35897;SDS011;21997;47.118;15.346;2022-11-24T00:08:39;8.37;;;5.27;;
35897;SDS011;21997;47.118;15.346;2022-11-24T00:11:07;5.67;;;5.00;;
35897;SDS011;21997;47.118;15.346;2022-11-24T00:13:34;8.07;;;5.10;;
35897;SDS011;21997;47.118;15.346;2022-11-24T00:16:45;7.50;;;4.80;;
35897;SDS011;21997;47.118;15.346;2022-11-24T00:18:50;7.13;;;4.97;;
35897;SDS011;21997;47.118;15.346;2022-11-24T00:21:17;6.77;;;5.07;;
35897;SDS011;21997;47.118;15.346;2022-11-24T00:23:43;7.97;;;5.90;;
35897;SDS011;21997;47.118;15.346;2022-11-24T00:26:10;8.70;;;5.67;;
35897;SDS011;21997;47.118;15.346;2022-11-24T00:28:37;9.63;;;5.50;;
35897;SDS011;21997;47.118;15.346;2022-11-24T00:31:04;7.63;;;5.27;;
35897;SDS011;21997;47.118;15.346;2022-11-24T00:33:30;6.57;;;3.90;;
35897;SDS011;21997;47.118;15.346;2022-11-24T00:35:56;6.60;;;4.67;;
35897;SDS011;21997;47.118;15.346;2022-11-24T00:38:23;6.83;;;4.50;;
35897;SDS011;21997;47.118;15.346;2022-11-24T00:40:49;5.53;;;3.97;;
35897;SDS011;21997;47.118;15.346;2022-11-24T00:43:15;6.87;;;4.47;;
35897;SDS011;21997;47.118;15.346;2022-11-24T00:45:40;7.97;;;4.10;;
35897;SDS011;21997;47.118;15.346;2022-11-24T00:48:06;7.90;;;4.17;;
35897;SDS011;21997;47.118;15.346;2022-11-24T00:50:31;6.40;;;4.00;;
35897;SDS011;21997;47.118;15.346;2022-11-24T00:52:57;9.50;;;4.10;;
35897;SDS011;21997;47.118;15.346;2022-11-24T00:55:22;5.70;;;4.40;;
35897;SDS011;21997;47.118;15.346;2022-11-24T00:57:47;5.83;;;4.73;;
35897;SDS011;21997;47.118;15.346;2022-11-24T01:00:13;5.73;;;4.10;;
35897;SDS011;21997;47.118;15.346;2022-11-24T01:02:39;7.47;;;4.17;;
35897;SDS011;21997;47.118;15.346;2022-11-24T01:05:04;5.03;;;3.70;;
35897;SDS011;21997;47.118;15.346;2022-11-24T01:07:30;5.60;;;3.93;;
35897;SDS011;21997;47.118;15.346;2022-11-24T01:09:55;5.60;;;3.63;;
35897;SDS011;21997;47.118;15.346;2022-11-24T01:12:20;5.50;;;4.60;;
35897;SDS011;21997;47.118;15.346;2022-11-24T01:14:46;6.27;;;4.80;;
35897;SDS011;21997;47.118;15.346;2022-11-24T01:17:11;4.33;;;3.43;;
35897;SDS011;21997;47.118;15.346;2022-11-24T01:19:36;6.70;;;4.10;;
35897;SDS011;21997;47.118;15.346;2022-11-24T01:22:02;5.10;;;4.60;;
35897;SDS011;21997;47.118;15.346;2022-11-24T01:24:27;4.53;;;4.10;;
35897;SDS011;21997;47.118;15.346;2022-11-24T01:26:53;7.53;;;4.63;;
35897;SDS011;21997;47.118;15.346;2022-11-24T01:29:18;6.20;;;4.73;;
35897;SDS011;21997;47.118;15.346;2022-11-24T01:31:43;6.17;;;4.30;;
35897;SDS011;21997;47.118;15.346;2022-11-24T01:34:09;8.13;;;4.23;;
35897;SDS011;21997;47.118;15.346;2022-11-24T01:36:34;6.70;;;4.93;;
35897;SDS011;21997;47.118;15.346;2022-11-24T01:38:59;4.57;;;3.50;;
35897;SDS011;21997;47.118;15.346;2022-11-24T01:41:25;4.10;;;3.40;;
35897;SDS011;21997;47.118;15.346;2022-11-24T01:43:52;5.00;;;3.40;;
35897;SDS011;21997;47.118;15.346;2022-11-24T01:48:49;4.13;;;2.93;;
35897;SDS011;21997;47.118;15.346;2022-11-24T01:52:08;4.40;;;3.50;;
35897;SDS011;21997;47.118;15.346;2022-11-24T01:54:33;4.30;;;3.00;;
35897;SDS011;21997;47.118;15.346;2022-11-24T01:57:02;5.33;;;3.40;;
35897;SDS011;21997;47.118;15.346;2022-11-24T01:59:31;6.33;;;3.70;;
35897;SDS011;21997;47.118;15.346;2022-11-24T02:01:57;6.07;;;3.43;;
35897;SDS011;21997;47.118;15.346;2022-11-24T02:04:24;4.70;;;3.57;;
35897;SDS011;21997;47.118;15.346;2022-11-24T02:06:51;7.77;;;3.77;;
35897;SDS011;21997;47.118;15.346;2022-11-24T02:09:20;6.03;;;3.83;;
35897;SDS011;21997;47.118;15.346;2022-11-24T02:11:48;4.07;;;3.50;;
35897;SDS011;21997;47.118;15.346;2022-11-24T02:14:14;4.67;;;3.30;;
35897;SDS011;21997;47.118;15.346;2022-11-24T02:16:41;4.40;;;2.97;;
35897;SDS011;21997;47.118;15.346;2022-11-24T02:19:32;3.83;;;2.67;;
35897;SDS011;21997;47.118;15.346;2022-11-24T02:21:56;4.47;;;3.03;;
35897;SDS011;21997;47.118;15.346;2022-11-24T02:24:24;4.53;;;2.53;;
35897;SDS011;21997;47.118;15.346;2022-11-24T02:26:57;4.37;;;3.17;;
35897;SDS011;21997;47.118;15.346;2022-11-24T02:29:22;4.60;;;2.80;;
35897;SDS011;21997;47.118;15.346;2022-11-24T02:31:50;3.70;;;2.87;;
35897;SDS011;21997;47.118;15.346;2022-11-24T02:34:18;3.33;;;3.03;;
35897;SDS011;21997;47.118;15.346;2022-11-24T02:36:44;4.33;;;3.17;;
35897;SDS011;21997;47.118;15.346;2022-11-24T02:39:10;5.57;;;3.10;;
35897;SDS011;21997;47.118;15.346;2022-11-24T02:41:36;5.07;;;3.60;;
35897;SDS011;21997;47.118;15.346;2022-11-24T02:44:02;4.73;;;3.10;;
35897;SDS011;21997;47.118;15.346;2022-11-24T02:46:27;5.23;;;3.40;;
35897;SDS011;21997;47.118;15.346;2022-11-24T02:48:52;3.47;;;3.03;;
35897;SDS011;21997;47.118;15.346;2022-11-24T02:51:18;5.03;;;3.40;;
35897;SDS011;21997;47.118;15.346;2022-11-24T02:53:44;4.13;;;3.73;;
35897;SDS011;21997;47.118;15.346;2022-11-24T02:56:09;6.20;;;4.07;;
35897;SDS011;21997;47.118;15.346;2022-11-24T02:58:35;4.93;;;4.20;;
35897;SDS011;21997;47.118;15.346;2022-11-24T03:01:00;4.50;;;3.70;;
35897;SDS011;21997;47.118;15.346;2022-11-24T03:03:26;4.27;;;3.57;;
35897;SDS011;21997;47.118;15.346;2022-11-24T03:05:52;4.83;;;3.67;;
35897;SDS011;21997;47.118;15.346;2022-11-24T03:08:17;5.00;;;3.50;;
35897;SDS011;21997;47.118;15.346;2022-11-24T03:10:43;6.27;;;3.93;;
35897;SDS011;21997;47.118;15.346;2022-11-24T03:13:09;5.97;;;3.50;;
35897;SDS011;21997;47.118;15.346;2022-11-24T03:15:34;4.73;;;3.30;;
35897;SDS011;21997;47.118;15.346;2022-11-24T03:18:00;6.03;;;2.90;;
35897;SDS011;21997;47.118;15.346;2022-11-24T03:20:25;3.90;;;3.50;;
35897;SDS011;21997;47.118;15.346;2022-11-24T03:22:51;4.47;;;3.20;;
35897;SDS011;21997;47.118;15.346;2022-11-24T03:25:16;5.67;;;3.60;;
35897;SDS011;21997;47.118;15.346;2022-11-24T03:27:42;4.07;;;3.40;;
35897;SDS011;21997;47.118;15.346;2022-11-24T03:30:08;3.87;;;3.23;;
35897;SDS011;21997;47.118;15.346;2022-11-24T03:32:34;4.57;;;3.37;;
35897;SDS011;21997;47.118;15.346;2022-11-24T03:34:59;5.67;;;3.60;;
35897;SDS011;21997;47.118;15.346;2022-11-24T03:37:24;3.77;;;2.97;;
35897;SDS011;21997;47.118;15.346;2022-11-24T03:39:50;5.27;;;3.47;;
35897;SDS011;21997;47.118;15.346;2022-11-24T03:42:15;5.07;;;3.20;;
35897;SDS011;21997;47.118;15.346;2022-11-24T03:44:41;5.73;;;3.30;;
35897;SDS011;21997;47.118;15.346;2022-11-24T03:47:06;5.67;;;3.23;;
35897;SDS011;21997;47.118;15.346;2022-11-24T03:49:31;3.87;;;3.07;;
35897;SDS011;21997;47.118;15.346;2022-11-24T03:51:57;3.30;;;3.00;;
35897;SDS011;21997;47.118;15.346;2022-11-24T03:54:22;6.83;;;2.83;;
35897;SDS011;21997;47.118;15.346;2022-11-24T03:56:48;4.13;;;3.07;;
35897;SDS011;21997;47.118;15.346;2022-11-24T03:59:13;6.17;;;3.20;;
35897;SDS011;21997;47.118;15.346;2022-11-24T04:01:38;5.30;;;3.00;;
35897;SDS011;21997;47.118;15.346;2022-11-24T04:04:04;3.73;;;2.97;;
35897;SDS011;21997;47.118;15.346;2022-11-24T04:06:29;4.77;;;3.20;;
35897;SDS011;21997;47.118;15.346;2022-11-24T04:08:55;4.40;;;3.30;;
35897;SDS011;21997;47.118;15.346;2022-11-24T04:11:20;4.77;;;3.60;;
35897;SDS011;21997;47.118;15.346;2022-11-24T04:14:04;5.43;;;4.67;;
35897;SDS011;21997;47.118;15.346;2022-11-24T04:16:29;6.40;;;3.70;;
35897;SDS011;21997;47.118;15.346;2022-11-24T04:18:55;5.57;;;3.77;;
35897;SDS011;21997;47.118;15.346;2022-11-24T04:21:20;5.53;;;3.63;;
35897;SDS011;21997;47.118;15.346;2022-11-24T04:23:45;4.77;;;3.17;;
35897;SDS011;21997;47.118;15.346;2022-11-24T04:26:11;4.20;;;3.00;;
35897;SDS011;21997;47.118;15.346;2022-11-24T04:28:37;4.70;;;3.23;;
35897;SDS011;21997;47.118;15.346;2022-11-24T04:31:03;4.93;;;3.50;;
35897;SDS011;21997;47.118;15.346;2022-11-24T04:33:29;3.57;;;3.27;;
35897;SDS011;21997;47.118;15.346;2022-11-24T04:35:54;3.90;;;3.03;;
35897;SDS011;21997;47.118;15.346;2022-11-24T04:38:20;3.33;;;3.03;;
35897;SDS011;21997;47.118;15.346;2022-11-24T04:40:45;3.53;;;3.23;;
35897;SDS011;21997;47.118;15.346;2022-11-24T04:43:10;4.93;;;3.23;;
35897;SDS011;21997;47.118;15.346;2022-11-24T04:45:36;4.23;;;3.00;;
35897;SDS011;21997;47.118;15.346;2022-11-24T04:48:02;4.73;;;3.13;;
35897;SDS011;21997;47.118;15.346;2022-11-24T04:50:28;2.77;;;2.50;;
35897;SDS011;21997;47.118;15.346;2022-11-24T04:52:53;3.70;;;3.03;;
35897;SDS011;21997;47.118;15.346;2022-11-24T04:55:18;3.23;;;2.60;;
35897;SDS011;21997;47.118;15.346;2022-11-24T04:57:44;4.80;;;3.73;;
35897;SDS011;21997;47.118;15.346;2022-11-24T05:00:10;6.57;;;4.37;;
35897;SDS011;21997;47.118;15.346;2022-11-24T05:02:36;6.60;;;4.40;;
35897;SDS011;21997;47.118;15.346;2022-11-24T05:05:01;8.87;;;4.63;;
35897;SDS011;21997;47.118;15.346;2022-11-24T05:07:27;10.50;;;5.60;;
35897;SDS011;21997;47.118;15.346;2022-11-24T05:09:53;8.40;;;4.13;;
35897;SDS011;21997;47.118;15.346;2022-11-24T05:12:37;7.97;;;4.43;;
35897;SDS011;21997;47.118;15.346;2022-11-24T05:15:03;6.33;;;4.23;;
35897;SDS011;21997;47.118;15.346;2022-11-24T05:17:30;5.53;;;4.07;;
35897;SDS011;21997;47.118;15.346;2022-11-24T05:19:58;4.60;;;3.87;;
35897;SDS011;21997;47.118;15.346;2022-11-24T05:22:24;5.53;;;3.53;;
35897;SDS011;21997;47.118;15.346;2022-11-24T05:24:49;9.77;;;5.20;;
35897;SDS011;21997;47.118;15.346;2022-11-24T05:27:15;9.57;;;5.90;;
35897;SDS011;21997;47.118;15.346;2022-11-24T05:29:40;24.30;;;13.63;;
35897;SDS011;21997;47.118;15.346;2022-11-24T05:32:05;12.83;;;8.87;;
35897;SDS011;21997;47.118;15.346;2022-11-24T05:34:31;8.67;;;7.20;;
35897;SDS011;21997;47.118;15.346;2022-11-24T05:36:59;22.20;;;14.63;;
35897;SDS011;21997;47.118;15.346;2022-11-24T05:39:28;10.40;;;7.33;;
35897;SDS011;21997;47.118;15.346;2022-11-24T05:41:55;8.50;;;6.40;;
35897;SDS011;21997;47.118;15.346;2022-11-24T05:44:21;10.50;;;7.77;;
35897;SDS011;21997;47.118;15.346;2022-11-24T05:46:46;14.20;;;8.23;;
35897;SDS011;21997;47.118;15.346;2022-11-24T05:49:12;10.50;;;8.53;;
35897;SDS011;21997;47.118;15.346;2022-11-24T05:51:37;43.73;;;21.23;;
35897;SDS011;21997;47.118;15.346;2022-11-24T05:54:03;124.33;;;52.60;;
35897;SDS011;21997;47.118;15.346;2022-11-24T05:56:28;41.17;;;22.77;;
35897;SDS011;21997;47.118;15.346;2022-11-24T05:58:54;22.07;;;13.07;;
35897;SDS011;21997;47.118;15.346;2022-11-24T06:01:19;12.00;;;8.50;;
35897;SDS011;21997;47.118;15.346;2022-11-24T06:03:45;14.63;;;10.40;;
35897;SDS011;21997;47.118;15.346;2022-11-24T06:06:10;26.00;;;12.23;;
35897;SDS011;21997;47.118;15.346;2022-11-24T06:08:36;25.67;;;13.73;;
35897;SDS011;21997;47.118;15.346;2022-11-24T06:11:02;126.57;;;52.53;;
35897;SDS011;21997;47.118;15.346;2022-11-24T06:13:41;52.43;;;27.10;;
35897;SDS011;21997;47.118;15.346;2022-11-24T06:16:08;63.67;;;29.13;;
35897;SDS011;21997;47.118;15.346;2022-11-24T06:18:34;38.43;;;18.23;;
35897;SDS011;21997;47.118;15.346;2022-11-24T06:21:01;29.00;;;14.93;;
35897;SDS011;21997;47.118;15.346;2022-11-24T06:23:27;26.70;;;14.10;;
35897;SDS011;21997;47.118;15.346;2022-11-24T06:25:52;21.10;;;12.30;;
35897;SDS011;21997;47.118;15.346;2022-11-24T06:28:18;22.20;;;12.53;;
35897;SDS011;21997;47.118;15.346;2022-11-24T06:30:43;33.60;;;16.57;;
35897;SDS011;21997;47.118;15.346;2022-11-24T06:33:09;28.50;;;17.30;;
35897;SDS011;21997;47.118;15.346;2022-11-24T06:35:35;21.00;;;13.97;;
35897;SDS011;21997;47.118;15.346;2022-11-24T06:38:00;22.17;;;12.37;;
35897;SDS011;21997;47.118;15.346;2022-11-24T06:40:25;18.37;;;12.00;;
35897;SDS011;21997;47.118;15.346;2022-11-24T06:42:51;19.80;;;12.20;;
35897;SDS011;21997;47.118;15.346;2022-11-24T06:45:16;17.23;;;11.10;;
35897;SDS011;21997;47.118;15.346;2022-11-24T06:47:42;16.23;;;10.77;;
35897;SDS011;21997;47.118;15.346;2022-11-24T06:50:08;14.10;;;10.03;;
35897;SDS011;21997;47.118;15.346;2022-11-24T06:52:33;14.57;;;10.17;;
35897;SDS011;21997;47.118;15.346;2022-11-24T06:54:59;13.87;;;8.97;;
35897;SDS011;21997;47.118;15.346;2022-11-24T06:57:25;13.33;;;8.60;;
35897;SDS011;21997;47.118;15.346;2022-11-24T06:59:51;11.23;;;8.50;;
35897;SDS011;21997;47.118;15.346;2022-11-24T07:02:16;14.43;;;8.33;;
35897;SDS011;21997;47.118;15.346;2022-11-24T07:04:42;12.80;;;8.47;;
35897;SDS011;21997;47.118;15.346;2022-11-24T07:07:07;14.93;;;8.47;;
35897;SDS011;21997;47.118;15.346;2022-11-24T07:09:32;17.20;;;11.63;;
35897;SDS011;21997;47.118;15.346;2022-11-24T07:11:58;101.33;;;53.17;;
35897;SDS011;21997;47.118;15.346;2022-11-24T07:14:24;26.87;;;19.00;;
35897;SDS011;21997;47.118;15.346;2022-11-24T07:16:49;14.93;;;11.00;;
35897;SDS011;21997;47.118;15.346;2022-11-24T07:19:14;13.27;;;8.17;;
35897;SDS011;21997;47.118;15.346;2022-11-24T07:21:40;13.03;;;8.77;;
35897;SDS011;21997;47.118;15.346;2022-11-24T07:24:05;11.73;;;8.00;;
35897;SDS011;21997;47.118;15.346;2022-11-24T07:26:31;18.87;;;11.33;;
35897;SDS011;21997;47.118;15.346;2022-11-24T07:29:01;18.53;;;13.40;;
35897;SDS011;21997;47.118;15.346;2022-11-24T07:31:27;18.20;;;12.53;;
35897;SDS011;21997;47.118;15.346;2022-11-24T07:33:53;12.93;;;10.30;;
35897;SDS011;21997;47.118;15.346;2022-11-24T07:36:19;10.17;;;8.97;;
35897;SDS011;21997;47.118;15.346;2022-11-24T07:38:45;12.83;;;8.87;;
35897;SDS011;21997;47.118;15.346;2022-11-24T07:41:11;15.80;;;10.57;;
35897;SDS011;21997;47.118;15.346;2022-11-24T07:43:38;11.77;;;8.97;;
35897;SDS011;21997;47.118;15.346;2022-11-24T07:46:04;17.30;;;10.83;;
35897;SDS011;21997;47.118;15.346;2022-11-24T07:48:30;12.83;;;9.77;;
35897;SDS011;21997;47.118;15.346;2022-11-24T07:51:00;15.33;;;10.60;;
35897;SDS011;21997;47.118;15.346;2022-11-24T07:53:26;17.17;;;11.47;;
35897;SDS011;21997;47.118;15.346;2022-11-24T07:55:52;12.30;;;9.63;;
35897;SDS011;21997;47.118;15.346;2022-11-24T07:58:19;19.57;;;10.40;;
35897;SDS011;21997;47.118;15.346;2022-11-24T08:00:45;14.50;;;10.97;;
35897;SDS011;21997;47.118;15.346;2022-11-24T08:03:10;17.87;;;11.20;;
35897;SDS011;21997;47.118;15.346;2022-11-24T08:05:35;11.37;;;9.77;;
35897;SDS011;21997;47.118;15.346;2022-11-24T08:08:01;13.13;;;9.80;;
35897;SDS011;21997;47.118;15.346;2022-11-24T08:10:26;18.30;;;13.27;;
35897;SDS011;21997;47.118;15.346;2022-11-24T08:12:52;15.30;;;13.77;;
35897;SDS011;21997;47.118;15.346;2022-11-24T08:15:17;17.03;;;13.43;;
35897;SDS011;21997;47.118;15.346;2022-11-24T08:17:42;10.13;;;8.90;;
35897;SDS011;21997;47.118;15.346;2022-11-24T08:20:08;9.17;;;7.83;;
35897;SDS011;21997;47.118;15.346;2022-11-24T08:22:34;8.60;;;7.70;;
35897;SDS011;21997;47.118;15.346;2022-11-24T08:24:59;9.13;;;7.47;;
35897;SDS011;21997;47.118;15.346;2022-11-24T08:27:25;7.93;;;6.00;;
35897;SDS011;21997;47.118;15.346;2022-11-24T08:29:50;6.20;;;5.60;;
35897;SDS011;21997;47.118;15.346;2022-11-24T08:32:15;5.83;;;5.33;;
35897;SDS011;21997;47.118;15.346;2022-11-24T08:34:41;9.23;;;6.80;;
35897;SDS011;21997;47.118;15.346;2022-11-24T08:37:06;7.50;;;6.17;;
35897;SDS011;21997;47.118;15.346;2022-11-24T08:39:32;9.52;;;6.18;;
35897;SDS011;21997;47.118;15.346;2022-11-24T08:41:57;6.20;;;5.60;;
35897;SDS011;21997;47.118;15.346;2022-11-24T08:44:23;8.13;;;5.47;;
35897;SDS011;21997;47.118;15.346;2022-11-24T08:46:48;5.68;;;5.18;;
35897;SDS011;21997;47.118;15.346;2022-11-24T08:49:14;4.80;;;4.40;;
35897;SDS011;21997;47.118;15.346;2022-11-24T08:51:40;3.88;;;3.47;;
35897;SDS011;21997;47.118;15.346;2022-11-24T08:54:05;3.60;;;3.30;;
35897;SDS011;21997;47.118;15.346;2022-11-24T08:56:31;4.00;;;3.53;;
35897;SDS011;21997;47.118;15.346;2022-11-24T08:58:57;3.95;;;3.55;;
35897;SDS011;21997;47.118;15.346;2022-11-24T09:01:23;3.58;;;3.28;;
35897;SDS011;21997;47.118;15.346;2022-11-24T09:03:49;3.20;;;2.85;;
35897;SDS011;21997;47.118;15.346;2022-11-24T09:06:15;3.10;;;2.80;;
35897;SDS011;21997;47.118;15.346;2022-11-24T09:08:42;4.00;;;3.20;;
35897;SDS011;21997;47.118;15.346;2022-11-24T09:11:08;4.20;;;3.80;;
35897;SDS011;21997;47.118;15.346;2022-11-24T09:13:35;4.70;;;4.10;;
35897;SDS011;21997;47.118;15.346;2022-11-24T09:16:05;4.83;;;4.33;;
35897;SDS011;21997;47.118;15.346;2022-11-24T09:18:32;4.27;;;3.87;;
35897;SDS011;21997;47.118;15.346;2022-11-24T09:21:11;4.07;;;3.67;;
35897;SDS011;21997;47.118;15.346;2022-11-24T09:23:40;3.93;;;3.53;;
35897;SDS011;21997;47.118;15.346;2022-11-24T09:26:07;4.13;;;3.73;;
35897;SDS011;21997;47.118;15.346;2022-11-24T09:28:37;7.13;;;5.37;;
35897;SDS011;21997;47.118;15.346;2022-11-24T09:31:03;11.67;;;9.33;;
35897;SDS011;21997;47.118;15.346;2022-11-24T09:33:30;15.33;;;11.43;;
35897;SDS011;21997;47.118;15.346;2022-11-24T09:35:56;13.87;;;10.23;;
35897;SDS011;21997;47.118;15.346;2022-11-24T09:38:22;13.13;;;11.20;;
35897;SDS011;21997;47.118;15.346;2022-11-24T09:40:48;14.47;;;11.83;;
35897;SDS011;21997;47.118;15.346;2022-11-24T09:45:54;10.17;;;6.93;;
35897;SDS011;21997;47.118;15.346;2022-11-24T09:48:32;8.00;;;7.17;;
35897;SDS011;21997;47.118;15.346;2022-11-24T09:51:01;6.60;;;4.40;;
35897;SDS011;21997;47.118;15.346;2022-11-24T09:53:30;6.13;;;4.20;;
35897;SDS011;21997;47.118;15.346;2022-11-24T09:56:41;7.67;;;6.67;;
35897;SDS011;21997;47.118;15.346;2022-11-24T10:01:43;8.03;;;5.37;;
35897;SDS011;21997;47.118;15.346;2022-11-24T10:09:58;8.87;;;8.03;;
35897;SDS011;21997;47.118;15.346;2022-11-24T10:12:33;8.63;;;6.70;;
35897;SDS011;21997;47.118;15.346;2022-11-24T10:15:53;6.90;;;6.10;;
35897;SDS011;21997;47.118;15.346;2022-11-24T10:23:44;8.13;;;7.23;;
35897;SDS011;21997;47.118;15.346;2022-11-24T10:26:31;10.00;;;8.93;;
35897;SDS011;21997;47.118;15.346;2022-11-24T10:29:00;11.33;;;8.70;;
35897;SDS011;21997;47.118;15.346;2022-11-24T10:31:34;8.30;;;7.40;;
35897;SDS011;21997;47.118;15.346;2022-11-24T10:34:04;7.77;;;7.07;;
35897;SDS011;21997;47.118;15.346;2022-11-24T10:36:38;8.10;;;5.67;;
35897;SDS011;21997;47.118;15.346;2022-11-24T10:39:12;4.30;;;3.90;;
35897;SDS011;21997;47.118;15.346;2022-11-24T10:41:45;4.00;;;3.60;;
35897;SDS011;21997;47.118;15.346;2022-11-24T10:44:12;3.60;;;3.27;;
35897;SDS011;21997;47.118;15.346;2022-11-24T10:46:39;5.13;;;3.53;;
35897;SDS011;21997;47.118;15.346;2022-11-24T10:49:04;4.27;;;3.87;;
35897;SDS011;21997;47.118;15.346;2022-11-24T10:53:57;4.40;;;3.70;;
35897;SDS011;21997;47.118;15.346;2022-11-24T10:56:25;4.33;;;3.70;;
35897;SDS011;21997;47.118;15.346;2022-11-24T10:58:50;4.63;;;3.30;;
35897;SDS011;21997;47.118;15.346;2022-11-24T11:03:48;4.10;;;3.23;;
35897;SDS011;21997;47.118;15.346;2022-11-24T11:06:15;5.03;;;3.33;;
35897;SDS011;21997;47.118;15.346;2022-11-24T11:11:33;5.37;;;4.23;;
35897;SDS011;21997;47.118;15.346;2022-11-24T11:14:00;4.17;;;3.33;;
35897;SDS011;21997;47.118;15.346;2022-11-24T11:16:34;5.80;;;4.70;;
35897;SDS011;21997;47.118;15.346;2022-11-24T11:19:00;6.97;;;4.53;;
35897;SDS011;21997;47.118;15.346;2022-11-24T11:21:36;6.70;;;3.87;;
35897;SDS011;21997;47.118;15.346;2022-11-24T11:24:04;4.33;;;3.40;;
35897;SDS011;21997;47.118;15.346;2022-11-24T11:26:36;4.77;;;3.13;;
35897;SDS011;21997;47.118;15.346;2022-11-24T11:31:34;6.90;;;2.50;;
35897;SDS011;21997;47.118;15.346;2022-11-24T11:34:01;4.20;;;2.93;;
35897;SDS011;21997;47.118;15.346;2022-11-24T11:36:48;4.87;;;1.67;;
35897;SDS011;21997;47.118;15.346;2022-11-24T11:47:42;3.20;;;1.70;;
35897;SDS011;21997;47.118;15.346;2022-11-24T11:50:10;2.60;;;1.37;;
35897;SDS011;21997;47.118;15.346;2022-11-24T12:00:23;3.40;;;1.07;;
35897;SDS011;21997;47.118;15.346;2022-11-24T12:11:16;4.53;;;1.55;;
35897;SDS011;21997;47.118;15.346;2022-11-24T12:17:05;2.13;;;1.50;;
35897;SDS011;21997;47.118;15.346;2022-11-24T12:30:41;4.15;;;3.65;;
35897;SDS011;21997;47.118;15.346;2022-11-24T12:33:27;7.75;;;3.67;;
35897;SDS011;21997;47.118;15.346;2022-11-24T12:36:25;4.88;;;2.60;;
35897;SDS011;21997;47.118;15.346;2022-11-24T12:39:05;6.22;;;3.67;;
35897;SDS011;21997;47.118;15.346;2022-11-24T12:49:37;6.13;;;3.58;;
35897;SDS011;21997;47.118;15.346;2022-11-24T12:52:18;8.98;;;4.45;;
35897;SDS011;21997;47.118;15.346;2022-11-24T12:54:46;6.95;;;3.97;;
35897;SDS011;21997;47.118;15.346;2022-11-24T12:59:56;7.20;;;4.90;;
35897;SDS011;21997;47.118;15.346;2022-11-24T13:08:15;6.97;;;4.70;;
35897;SDS011;21997;47.118;15.346;2022-11-24T13:10:41;4.53;;;3.10;;
35897;SDS011;21997;47.118;15.346;2022-11-24T13:13:10;3.37;;;1.97;;
35897;SDS011;21997;47.118;15.346;2022-11-24T13:16:01;2.60;;;1.77;;
35897;SDS011;21997;47.118;15.346;2022-11-24T13:26:51;4.18;;;3.17;;
35897;SDS011;21997;47.118;15.346;2022-11-24T13:29:35;3.88;;;2.58;;
35897;SDS011;21997;47.118;15.346;2022-11-24T13:39:47;2.92;;;2.47;;
35897;SDS011;21997;47.118;15.346;2022-11-24T13:42:13;3.03;;;2.08;;
35897;SDS011;21997;47.118;15.346;2022-11-24T13:44:41;2.30;;;2.10;;
35897;SDS011;21997;47.118;15.346;2022-11-24T13:50:04;4.68;;;1.55;;
35897;SDS011;21997;47.118;15.346;2022-11-24T13:55:03;2.78;;;1.50;;
35897;SDS011;21997;47.118;15.346;2022-11-24T13:57:47;3.37;;;1.50;;
35897;SDS011;21997;47.118;15.346;2022-11-24T14:02:45;2.70;;;2.17;;
35897;SDS011;21997;47.118;15.346;2022-11-24T14:05:13;3.30;;;1.60;;
35897;SDS011;21997;47.118;15.346;2022-11-24T14:07:39;7.00;;;1.33;;
35897;SDS011;21997;47.118;15.346;2022-11-24T14:10:12;3.37;;;1.17;;
35897;SDS011;21997;47.118;15.346;2022-11-24T14:12:42;2.53;;;1.30;;
35897;SDS011;21997;47.118;15.346;2022-11-24T14:15:15;2.13;;;1.10;;
35897;SDS011;21997;47.118;15.346;2022-11-24T14:17:45;2.23;;;1.40;;
35897;SDS011;21997;47.118;15.346;2022-11-24T14:20:24;4.33;;;1.50;;
35897;SDS011;21997;47.118;15.346;2022-11-24T14:22:50;4.87;;;2.67;;
35897;SDS011;21997;47.118;15.346;2022-11-24T14:25:26;7.50;;;3.57;;
35897;SDS011;21997;47.118;15.346;2022-11-24T14:27:54;9.77;;;4.67;;
35897;SDS011;21997;47.118;15.346;2022-11-24T14:30:20;10.33;;;3.63;;
35897;SDS011;21997;47.118;15.346;2022-11-24T14:32:54;10.60;;;4.83;;
35897;SDS011;21997;47.118;15.346;2022-11-24T14:35:25;3.97;;;2.30;;
35897;SDS011;21997;47.118;15.346;2022-11-24T14:37:52;8.17;;;2.93;;
35897;SDS011;21997;47.118;15.346;2022-11-24T14:43:26;8.93;;;6.30;;
35897;SDS011;21997;47.118;15.346;2022-11-24T14:45:57;5.53;;;3.80;;
35897;SDS011;21997;47.118;15.346;2022-11-24T14:48:25;5.77;;;2.77;;
35897;SDS011;21997;47.118;15.346;2022-11-24T14:51:03;5.47;;;3.63;;
35897;SDS011;21997;47.118;15.346;2022-11-24T14:53:32;10.40;;;4.20;;
35897;SDS011;21997;47.118;15.346;2022-11-24T14:56:20;6.23;;;3.77;;
35897;SDS011;21997;47.118;15.346;2022-11-24T14:58:46;4.20;;;3.70;;
35897;SDS011;21997;47.118;15.346;2022-11-24T15:01:19;7.80;;;3.77;;
35897;SDS011;21997;47.118;15.346;2022-11-24T15:03:47;10.40;;;5.03;;
35897;SDS011;21997;47.118;15.346;2022-11-24T15:06:39;18.40;;;9.90;;
35897;SDS011;21997;47.118;15.346;2022-11-24T15:09:05;10.67;;;7.23;;
35897;SDS011;21997;47.118;15.346;2022-11-24T15:11:31;16.40;;;10.50;;
35897;SDS011;21997;47.118;15.346;2022-11-24T15:13:57;8.30;;;5.73;;
35897;SDS011;21997;47.118;15.346;2022-11-24T15:16:23;6.47;;;4.30;;
35897;SDS011;21997;47.118;15.346;2022-11-24T15:19:00;7.90;;;5.97;;
35897;SDS011;21997;47.118;15.346;2022-11-24T15:21:33;11.97;;;6.97;;
35897;SDS011;21997;47.118;15.346;2022-11-24T15:24:03;9.77;;;6.13;;
35897;SDS011;21997;47.118;15.346;2022-11-24T15:26:41;7.40;;;6.23;;
35897;SDS011;21997;47.118;15.346;2022-11-24T15:29:07;9.87;;;5.90;;
35897;SDS011;21997;47.118;15.346;2022-11-24T15:31:33;13.97;;;6.50;;
35897;SDS011;21997;47.118;15.346;2022-11-24T15:33:58;12.57;;;6.73;;
35897;SDS011;21997;47.118;15.346;2022-11-24T15:36:24;8.37;;;6.67;;
35897;SDS011;21997;47.118;15.346;2022-11-24T15:38:49;7.13;;;5.70;;
35897;SDS011;21997;47.118;15.346;2022-11-24T15:41:18;9.70;;;5.10;;
35897;SDS011;21997;47.118;15.346;2022-11-24T15:43:44;4.47;;;3.50;;
35897;SDS011;21997;47.118;15.346;2022-11-24T15:46:09;4.57;;;3.90;;
35897;SDS011;21997;47.118;15.346;2022-11-24T15:48:35;5.43;;;4.73;;
35897;SDS011;21997;47.118;15.346;2022-11-24T15:51:03;8.13;;;5.30;;
35897;SDS011;21997;47.118;15.346;2022-11-24T15:53:35;8.67;;;4.97;;
35897;SDS011;21997;47.118;15.346;2022-11-24T15:56:04;13.03;;;5.33;;
35897;SDS011;21997;47.118;15.346;2022-11-24T15:58:31;8.30;;;5.27;;
35897;SDS011;21997;47.118;15.346;2022-11-24T16:00:57;15.00;;;6.40;;
35897;SDS011;21997;47.118;15.346;2022-11-24T16:03:22;14.27;;;5.70;;
35897;SDS011;21997;47.118;15.346;2022-11-24T16:05:48;11.10;;;5.77;;
35897;SDS011;21997;47.118;15.346;2022-11-24T16:08:17;11.03;;;6.00;;
35897;SDS011;21997;47.118;15.346;2022-11-24T16:10:42;8.80;;;6.03;;
35897;SDS011;21997;47.118;15.346;2022-11-24T16:13:08;10.93;;;6.90;;
35897;SDS011;21997;47.118;15.346;2022-11-24T16:15:34;13.53;;;6.57;;
35897;SDS011;21997;47.118;15.346;2022-11-24T16:17:59;14.20;;;7.27;;
35897;SDS011;21997;47.118;15.346;2022-11-24T16:20:25;12.40;;;8.27;;
35897;SDS011;21997;47.118;15.346;2022-11-24T16:22:51;16.47;;;9.83;;
35897;SDS011;21997;47.118;15.346;2022-11-24T16:25:16;15.57;;;9.80;;